createdAt,value
2019-05-23T00:01:57.567Z,3.13
2019-05-23T00:05:26.893Z,2.30
2019-05-23T00:08:22.187Z,16.10
2019-05-23T00:11:05.777Z,3.87
2019-05-23T00:14:03.438Z,2.00
2019-05-23T00:16:38.965Z,1.83
2019-05-23T00:19:12.042Z,2.23
2019-05-23T00:21:45.841Z,1.90
2019-05-23T00:24:19.318Z,1.70
2019-05-23T00:26:53.771Z,2.07
2019-05-23T00:29:29.276Z,1.40
2019-05-23T00:32:13.332Z,2.00
2019-05-23T00:34:47.587Z,1.70
2019-05-23T00:37:23.394Z,1.93
2019-05-23T00:39:56.519Z,1.93
2019-05-23T00:42:32.185Z,2.50
2019-05-23T00:45:07.125Z,1.60
2019-05-23T00:47:41.148Z,1.70
2019-05-23T00:50:18.861Z,2.00
2019-05-23T00:52:58.646Z,2.80
2019-05-23T00:55:32.860Z,2.40
2019-05-23T00:58:07.796Z,2.20
2019-05-23T01:00:41.066Z,1.53
2019-05-23T01:03:17.063Z,1.77
2019-05-23T01:05:51.979Z,3.10
2019-05-23T01:08:26.424Z,2.60
2019-05-23T01:11:01.092Z,2.07
2019-05-23T01:13:34.777Z,1.80
2019-05-23T01:16:09.119Z,6.93
2019-05-23T01:18:43.078Z,10.90
2019-05-23T01:21:44.727Z,2.40
2019-05-23T01:24:30.347Z,1.70
2019-05-23T01:27:06.266Z,1.70
2019-05-23T01:29:49.520Z,1.80
2019-05-23T01:32:41.021Z,1.50
2019-05-23T01:35:17.791Z,1.30
2019-05-23T01:37:51.484Z,2.90
2019-05-23T01:40:29.144Z,1.80
2019-05-23T01:43:04.725Z,1.83
2019-05-23T01:45:40.633Z,1.20
2019-05-23T01:48:20.537Z,1.30
2019-05-23T01:50:53.774Z,1.40
2019-05-23T01:53:32.178Z,1.47
2019-05-23T01:56:07.534Z,1.73
2019-05-23T01:58:41.493Z,1.33
2019-05-23T02:01:16.180Z,1.50
2019-05-23T02:03:49.337Z,1.53
2019-05-23T02:06:26.291Z,1.60
2019-05-23T02:09:01.761Z,1.43
2019-05-23T02:11:37.876Z,1.23
2019-05-23T02:14:13.309Z,2.60
2019-05-23T02:16:48.041Z,2.50
2019-05-23T02:19:21.481Z,1.40
2019-05-23T02:21:58.342Z,1.40
2019-05-23T02:24:34.275Z,1.60
2019-05-23T02:27:10.285Z,1.80
2019-05-23T02:29:45.047Z,1.80
2019-05-23T02:32:18.908Z,1.20
2019-05-23T02:34:53.358Z,1.57
2019-05-23T02:37:45.486Z,1.97
2019-05-23T02:40:26.373Z,1.50
2019-05-23T02:43:02.808Z,1.93
2019-05-23T02:45:43.711Z,1.63
2019-05-23T02:48:31.423Z,1.77
2019-05-23T02:51:07.488Z,1.40
2019-05-23T02:53:41.856Z,1.57
2019-05-23T02:56:17.376Z,1.80
2019-05-23T02:59:05.991Z,2.23
2019-05-23T03:02:03.878Z,2.33
2019-05-23T03:04:39.225Z,1.30
2019-05-23T03:07:14.073Z,9.03
2019-05-23T03:09:48.702Z,3.60
2019-05-23T03:12:25.189Z,2.20
2019-05-23T03:14:59.219Z,1.90
2019-05-23T03:17:35.853Z,3.60
2019-05-23T03:20:11.415Z,4.53
2019-05-23T03:23:04.607Z,2.50
2019-05-23T03:26:19.058Z,2.60
2019-05-23T03:28:52.936Z,1.80
2019-05-23T03:31:38.781Z,2.20
2019-05-23T03:34:11.927Z,1.80
2019-05-23T03:36:58.264Z,4.23
2019-05-23T03:39:31.637Z,2.73
2019-05-23T03:42:03.804Z,1.93
2019-05-23T03:44:36.583Z,2.70
2019-05-23T03:47:13.559Z,2.10
2019-05-23T03:49:48.230Z,2.40
2019-05-23T03:52:29.054Z,2.03
2019-05-23T03:55:03.606Z,2.30
2019-05-23T03:57:42.052Z,2.70
2019-05-23T04:00:21.059Z,4.27
2019-05-23T04:02:54.843Z,4.07
2019-05-23T04:05:29.395Z,3.87
2019-05-23T04:08:05.212Z,4.10
2019-05-23T04:10:39.333Z,3.87
2019-05-23T04:13:13.403Z,3.20
2019-05-23T04:15:53.011Z,4.03
2019-05-23T04:18:27.321Z,4.93
2019-05-23T04:21:01.689Z,3.93
2019-05-23T04:23:35.799Z,3.50
2019-05-23T04:26:09.983Z,3.80
2019-05-23T04:28:44.020Z,2.50
2019-05-23T04:31:18.179Z,5.37
2019-05-23T04:33:52.631Z,9.47
2019-05-23T04:36:26.997Z,5.07
2019-05-23T04:39:00.810Z,10.60
2019-05-23T04:41:34.320Z,8.33
2019-05-23T04:44:07.595Z,4.27
2019-05-23T04:46:42.197Z,6.67
2019-05-23T04:49:16.627Z,5.17
2019-05-23T04:51:55.770Z,7.80
2019-05-23T04:54:29.841Z,8.70
2019-05-23T04:57:10.590Z,6.77
2019-05-23T04:59:44.780Z,6.97
2019-05-23T05:02:26.090Z,9.13
2019-05-23T05:04:56.754Z,8.60
2019-05-23T05:07:30.822Z,12.10
2019-05-23T05:10:06.333Z,16.87
2019-05-23T05:12:39.582Z,6.53
2019-05-23T05:15:12.866Z,5.43
2019-05-23T05:17:48.818Z,5.53
2019-05-23T05:20:24.993Z,6.93
2019-05-23T05:23:04.389Z,7.40
2019-05-23T05:25:39.300Z,5.90
2019-05-23T05:28:12.720Z,3.87
2019-05-23T05:30:47.755Z,4.50
2019-05-23T05:33:26.231Z,4.90
2019-05-23T05:36:01.654Z,12.27
2019-05-23T05:38:46.269Z,11.50
2019-05-23T05:41:24.127Z,14.27
2019-05-23T05:43:57.923Z,6.63
2019-05-23T05:46:33.620Z,5.43
2019-05-23T05:49:10.019Z,5.63
2019-05-23T05:51:44.242Z,4.90
2019-05-23T05:54:17.959Z,11.63
2019-05-23T05:56:52.098Z,14.53
2019-05-23T05:59:26.530Z,8.10
2019-05-23T06:02:00.880Z,16.83
2019-05-23T06:04:38.170Z,13.43
2019-05-23T06:07:21.423Z,9.17
2019-05-23T06:10:13.627Z,9.67
2019-05-23T06:12:53.859Z,3.00
2019-05-23T06:15:27.939Z,2.50
2019-05-23T06:19:00.598Z,3.40
2019-05-23T06:22:23.717Z,2.17
2019-05-23T06:24:58.616Z,2.23
2019-05-23T06:27:31.832Z,2.67
2019-05-23T06:30:07.997Z,5.20
2019-05-23T06:32:43.266Z,13.60
2019-05-23T06:35:18.383Z,3.50
2019-05-23T06:37:52.114Z,5.13
2019-05-23T06:40:30.482Z,2.43
2019-05-23T06:43:05.035Z,2.43
2019-05-23T06:45:42.369Z,2.50
2019-05-23T06:48:25.650Z,3.17
2019-05-23T06:50:59.750Z,3.43
2019-05-23T06:53:36.048Z,3.07
2019-05-23T06:56:09.991Z,3.57
2019-05-23T06:58:43.970Z,3.80
2019-05-23T07:01:17.853Z,3.93
2019-05-23T07:03:54.254Z,4.10
2019-05-23T07:06:28.311Z,4.20
2019-05-23T07:09:22.302Z,5.03
2019-05-23T07:12:31.045Z,7.03
2019-05-23T07:15:36.206Z,7.93
2019-05-23T07:18:10.381Z,2.83
2019-05-23T07:20:45.752Z,3.13
2019-05-23T07:23:27.989Z,3.07
2019-05-23T07:26:33.316Z,3.00
2019-05-23T07:29:12.923Z,3.00
2019-05-23T07:31:46.773Z,3.43
2019-05-23T07:34:20.763Z,4.00
2019-05-23T07:37:11.597Z,3.40
2019-05-23T07:39:45.709Z,2.97
2019-05-23T07:42:51.478Z,4.17
2019-05-23T07:45:32.119Z,2.93
2019-05-23T07:48:06.011Z,3.80
2019-05-23T07:50:40.394Z,4.83
2019-05-23T07:53:20.709Z,3.53
2019-05-23T07:56:13.615Z,3.07
2019-05-23T07:59:05.175Z,4.40
2019-05-23T08:01:58.613Z,3.13
2019-05-23T08:05:04.974Z,3.33
2019-05-23T08:07:52.453Z,3.23
2019-05-23T08:10:57.038Z,3.10
2019-05-23T08:13:31.979Z,3.00
2019-05-23T08:16:07.020Z,2.93
2019-05-23T08:19:48.172Z,2.90
2019-05-23T08:22:08.861Z,2.80
2019-05-23T08:25:20.636Z,2.53
2019-05-23T08:27:55.577Z,3.00
2019-05-23T08:30:29.123Z,2.90
2019-05-23T08:33:18.159Z,4.07
2019-05-23T08:35:52.024Z,4.00
2019-05-23T08:38:40.532Z,3.70
2019-05-23T08:41:51.473Z,3.37
2019-05-23T08:44:50.114Z,3.77
2019-05-23T08:47:24.718Z,2.67
2019-05-23T08:49:59.672Z,2.90
2019-05-23T08:52:57.666Z,5.10
2019-05-23T08:56:18.020Z,2.70
2019-05-23T08:59:17.233Z,3.70
2019-05-23T09:01:55.128Z,2.87
2019-05-23T09:05:02.364Z,3.47
2019-05-23T09:07:21.494Z,4.20
2019-05-23T09:14:02.881Z,3.20
2019-05-23T09:16:37.810Z,3.40
2019-05-23T09:19:11.996Z,4.17
2019-05-23T09:21:46.003Z,2.53
2019-05-23T09:24:20.409Z,2.60
2019-05-23T09:26:54.659Z,2.93
2019-05-23T09:29:27.549Z,3.20
2019-05-23T09:33:02.506Z,2.53
2019-05-23T09:46:21.868Z,5.67
2019-05-23T09:48:56.240Z,7.03
2019-05-23T09:51:32.119Z,3.90
2019-05-23T09:54:05.691Z,2.73
2019-05-23T09:56:41.958Z,5.10
2019-05-23T09:59:16.239Z,2.63
2019-05-23T10:01:54.726Z,3.97
2019-05-23T10:04:56.913Z,3.73
2019-05-23T10:07:39.222Z,2.40
2019-05-23T10:10:48.721Z,3.43
2019-05-23T10:13:38.612Z,3.90
2019-05-23T10:16:09.267Z,4.30
2019-05-23T10:22:39.698Z,4.73
2019-05-23T10:25:14.582Z,2.70
2019-05-23T10:27:49.695Z,4.07
2019-05-23T10:30:31.836Z,2.20
2019-05-23T10:33:13.174Z,3.20
2019-05-23T10:35:59.713Z,3.93
2019-05-23T10:38:22.573Z,3.53
2019-05-23T10:40:54.919Z,3.03
2019-05-23T10:43:52.663Z,2.73
2019-05-23T10:46:26.615Z,3.30
2019-05-23T10:49:03.208Z,5.13
2019-05-23T10:51:36.101Z,2.50
2019-05-23T10:54:10.920Z,7.47
2019-05-23T11:00:45.644Z,2.60
2019-05-23T11:07:15.000Z,3.07
2019-05-23T11:17:09.747Z,2.30
2019-05-23T11:20:00.615Z,2.40
2019-05-23T11:22:35.119Z,2.10
2019-05-23T11:25:45.974Z,2.47
2019-05-23T11:28:22.715Z,4.50
2019-05-23T11:30:58.918Z,2.80
2019-05-23T11:33:33.982Z,2.53
2019-05-23T11:36:56.436Z,2.67
2019-05-23T11:39:49.445Z,3.10
2019-05-23T11:43:00.212Z,3.27
2019-05-23T11:46:29.310Z,3.00
2019-05-23T11:49:17.524Z,2.67
2019-05-23T11:52:51.005Z,2.63
2019-05-23T11:55:54.257Z,2.30
2019-05-23T12:09:48.772Z,2.17
2019-05-23T12:12:57.498Z,4.40
2019-05-23T12:15:51.387Z,1.93
2019-05-23T12:18:25.930Z,2.70
2019-05-23T12:21:00.022Z,2.70
2019-05-23T12:23:41.066Z,2.70
2019-05-23T12:26:19.185Z,3.27
2019-05-23T12:29:04.340Z,2.20
2019-05-23T12:32:19.769Z,2.53
2019-05-23T12:35:10.241Z,2.07
2019-05-23T12:42:11.077Z,2.37
2019-05-23T12:45:25.100Z,2.80
2019-05-23T12:59:57.876Z,2.20
2019-05-23T13:02:30.633Z,2.27
2019-05-23T13:05:15.868Z,2.43
2019-05-23T13:08:09.716Z,2.03
2019-05-23T13:14:46.507Z,1.97
2019-05-23T13:17:59.510Z,1.67
2019-05-23T13:20:48.084Z,2.40
2019-05-23T13:23:22.690Z,1.90
2019-05-23T13:30:03.300Z,2.37
2019-05-23T13:32:38.388Z,1.80
2019-05-23T13:36:21.590Z,2.20
2019-05-23T13:43:19.362Z,4.00
2019-05-23T13:46:01.584Z,2.30
2019-05-23T13:49:22.498Z,2.67
2019-05-23T13:55:48.792Z,2.30
2019-05-23T13:58:44.762Z,2.37
2019-05-23T14:01:33.098Z,2.30
2019-05-23T14:04:49.199Z,1.70
2019-05-23T14:07:28.174Z,1.67
2019-05-23T14:11:02.253Z,2.50
2019-05-23T14:13:47.908Z,2.43
2019-05-23T14:16:22.356Z,2.50
2019-05-23T14:19:04.222Z,2.37
2019-05-23T14:21:42.477Z,2.07
2019-05-23T14:28:07.781Z,2.27
2019-05-23T14:31:41.113Z,2.10
2019-05-23T14:34:19.393Z,2.63
2019-05-23T14:37:40.507Z,1.93
2019-05-23T14:40:23.346Z,1.87
2019-05-23T14:43:12.463Z,2.73
2019-05-23T14:46:08.459Z,2.63
2019-05-23T14:49:09.451Z,3.07
2019-05-23T14:52:30.164Z,3.67
2019-05-23T14:55:12.047Z,1.70
2019-05-23T14:58:00.129Z,1.80
2019-05-23T15:01:05.094Z,1.67
2019-05-23T15:03:40.400Z,2.73
2019-05-23T15:06:16.047Z,3.10
2019-05-23T15:08:55.233Z,2.87
2019-05-23T15:11:28.885Z,2.40
2019-05-23T15:14:07.502Z,2.00
2019-05-23T15:17:28.502Z,2.33
2019-05-23T15:20:05.315Z,2.27
2019-05-23T15:22:40.092Z,2.10
2019-05-23T15:25:14.401Z,2.00
2019-05-23T15:27:59.937Z,1.60
2019-05-23T15:30:43.251Z,2.07
2019-05-23T15:33:34.802Z,1.93
2019-05-23T15:36:14.371Z,1.60
2019-05-23T15:39:42.989Z,1.50
2019-05-23T15:42:22.586Z,1.90
2019-05-23T15:45:11.727Z,2.77
2019-05-23T15:47:57.725Z,2.93
2019-05-23T15:51:31.495Z,2.00
2019-05-23T15:57:33.775Z,1.73
2019-05-23T16:00:52.334Z,2.47
2019-05-23T16:03:51.917Z,2.73
2019-05-23T16:06:27.601Z,1.70
2019-05-23T16:12:51.178Z,1.50
2019-05-23T16:19:25.502Z,1.40
2019-05-23T16:21:58.076Z,1.50
2019-05-23T16:24:33.656Z,5.50
2019-05-23T16:27:17.430Z,1.50
2019-05-23T16:29:51.371Z,2.43
2019-05-23T16:32:33.809Z,2.73
2019-05-23T16:35:13.486Z,1.53
2019-05-23T16:37:47.525Z,3.23
2019-05-23T16:40:22.702Z,5.43
2019-05-23T16:43:00.412Z,2.93
2019-05-23T16:45:49.100Z,3.97
2019-05-23T16:48:25.938Z,8.90
2019-05-23T16:51:09.294Z,2.67
2019-05-23T16:53:43.349Z,2.80
2019-05-23T16:56:48.003Z,1.43
2019-05-23T17:03:00.749Z,3.00
2019-05-23T17:06:47.731Z,3.00
2019-05-23T17:10:07.764Z,1.20
2019-05-23T17:16:47.295Z,1.50
2019-05-23T17:19:48.682Z,1.90
2019-05-23T17:23:15.291Z,1.90
2019-05-23T17:26:50.382Z,4.77
2019-05-23T17:29:52.378Z,2.90
2019-05-23T17:32:30.759Z,3.37
2019-05-23T17:35:04.879Z,5.03
2019-05-23T17:37:39.621Z,5.10
2019-05-23T17:40:27.019Z,3.00
2019-05-23T17:44:05.154Z,3.17
2019-05-23T17:46:49.935Z,3.00
2019-05-23T17:49:24.441Z,3.10
2019-05-23T17:52:08.740Z,3.60
2019-05-23T17:54:44.329Z,2.40
2019-05-23T17:57:26.849Z,2.87
2019-05-23T18:00:29.320Z,3.13
2019-05-23T18:07:00.850Z,3.13
2019-05-23T18:09:44.953Z,3.40
2019-05-23T18:12:26.800Z,3.80
2019-05-23T18:15:09.232Z,2.70
2019-05-23T18:17:44.273Z,3.50
2019-05-23T18:20:19.821Z,2.20
2019-05-23T18:22:54.869Z,3.70
2019-05-23T18:25:32.818Z,7.00
2019-05-23T18:28:09.766Z,2.73
2019-05-23T18:31:10.918Z,4.07
2019-05-23T18:33:45.345Z,2.23
2019-05-23T18:36:20.463Z,2.20
2019-05-23T18:38:55.086Z,7.70
2019-05-23T18:41:30.426Z,5.43
2019-05-23T18:44:05.561Z,2.60
2019-05-23T18:46:45.515Z,2.73
2019-05-23T18:49:21.473Z,5.13
2019-05-23T18:51:56.116Z,2.87
2019-05-23T18:54:30.204Z,3.23
2019-05-23T18:57:03.736Z,3.47
2019-05-23T18:59:44.572Z,2.77
2019-05-23T19:02:18.272Z,3.53
2019-05-23T19:05:10.820Z,3.10
2019-05-23T19:07:45.613Z,3.27
2019-05-23T19:10:20.624Z,3.17
2019-05-23T19:12:55.081Z,3.03
2019-05-23T19:15:28.875Z,7.00
2019-05-23T19:18:03.584Z,6.43
2019-05-23T19:20:39.732Z,6.47
2019-05-23T19:23:13.807Z,3.90
2019-05-23T19:25:50.315Z,3.13
2019-05-23T19:28:24.998Z,4.47
2019-05-23T19:30:59.434Z,3.83
2019-05-23T19:33:34.900Z,2.97
2019-05-23T19:36:18.584Z,4.33
2019-05-23T19:38:54.340Z,3.90
2019-05-23T19:41:37.247Z,3.37
2019-05-23T19:44:12.892Z,7.40
2019-05-23T19:46:47.777Z,4.00
2019-05-23T19:49:22.818Z,4.00
2019-05-23T19:51:57.331Z,4.80
2019-05-23T19:54:31.616Z,4.83
2019-05-23T19:57:06.012Z,4.27
2019-05-23T19:59:40.275Z,5.63
2019-05-23T20:02:33.962Z,5.27
2019-05-23T20:05:24.888Z,4.20
2019-05-23T20:07:59.717Z,8.20
2019-05-23T20:10:33.641Z,7.27
2019-05-23T20:13:07.826Z,6.30
2019-05-23T20:15:45.301Z,5.80
2019-05-23T20:18:16.917Z,4.10
2019-05-23T20:20:51.148Z,5.00
2019-05-23T20:23:25.242Z,4.60
2019-05-23T20:25:59.344Z,3.60
2019-05-23T20:28:35.114Z,3.27
2019-05-23T20:31:09.917Z,3.77
2019-05-23T20:33:44.423Z,4.67
2019-05-23T20:36:23.152Z,5.23
2019-05-23T20:39:17.930Z,8.17
2019-05-23T20:41:52.396Z,6.40
2019-05-23T20:44:41.371Z,5.90
2019-05-23T20:47:25.962Z,9.73
2019-05-23T20:50:00.004Z,5.30
2019-05-23T20:52:34.420Z,7.23
2019-05-23T20:55:11.262Z,6.50
2019-05-23T20:57:46.439Z,5.20
2019-05-23T21:00:27.829Z,5.63
2019-05-23T21:03:02.481Z,7.00
2019-05-23T21:05:36.566Z,7.87
2019-05-23T21:08:14.877Z,7.00
2019-05-23T21:10:50.465Z,10.70
2019-05-23T21:13:41.168Z,8.30
2019-05-23T21:16:34.345Z,11.43
2019-05-23T21:19:10.529Z,8.13
2019-05-23T21:21:44.963Z,6.77
2019-05-23T21:24:18.876Z,7.57
2019-05-23T21:27:02.069Z,6.87
2019-05-23T21:29:36.171Z,8.87
2019-05-23T21:32:10.464Z,8.47
2019-05-23T21:34:45.085Z,10.53
2019-05-23T21:37:18.701Z,8.93
2019-05-23T21:39:51.649Z,6.57
2019-05-23T21:42:25.213Z,8.37
2019-05-23T21:44:59.301Z,6.97
2019-05-23T21:47:32.970Z,7.77
2019-05-23T21:50:08.171Z,7.47
2019-05-23T21:52:46.630Z,6.90
2019-05-23T21:55:23.570Z,6.03
2019-05-23T21:57:57.267Z,7.37
2019-05-23T22:01:11.177Z,17.90
2019-05-23T22:03:46.302Z,8.67
2019-05-23T22:06:20.618Z,5.50
2019-05-23T22:08:54.513Z,5.47
2019-05-23T22:11:28.615Z,5.93
2019-05-23T22:14:03.563Z,6.37
2019-05-23T22:16:37.437Z,6.10
2019-05-23T22:19:14.901Z,6.40
2019-05-23T22:21:48.784Z,6.07
2019-05-23T22:24:22.459Z,7.30
2019-05-23T22:26:56.175Z,6.67
2019-05-23T22:29:30.184Z,6.17
2019-05-23T22:32:03.145Z,11.37
2019-05-23T22:35:00.640Z,5.77
2019-05-23T22:37:34.677Z,7.10
2019-05-23T22:40:08.655Z,5.63
2019-05-23T22:42:42.806Z,4.87
2019-05-23T22:45:19.179Z,4.40
2019-05-23T22:47:52.882Z,4.90
2019-05-23T22:50:27.043Z,5.60
2019-05-23T22:53:00.798Z,5.43
2019-05-23T22:55:38.782Z,4.73
2019-05-23T22:58:12.377Z,4.63
2019-05-23T23:00:47.479Z,3.93
2019-05-23T23:03:19.437Z,4.70
2019-05-23T23:05:52.743Z,6.10
2019-05-23T23:08:27.588Z,6.27
2019-05-23T23:11:02.597Z,5.80
2019-05-23T23:13:38.929Z,5.60
2019-05-23T23:16:11.869Z,6.47
2019-05-23T23:18:45.443Z,4.80
2019-05-23T23:21:18.165Z,6.90
2019-05-23T23:23:51.807Z,8.10
2019-05-23T23:26:24.665Z,6.37
2019-05-23T23:28:57.694Z,4.90
2019-05-23T23:31:30.859Z,4.87
2019-05-23T23:34:03.667Z,4.60
2019-05-23T23:36:41.211Z,5.27
2019-05-23T23:39:15.051Z,4.83
2019-05-23T23:41:48.539Z,5.13
2019-05-23T23:44:22.778Z,3.83
2019-05-23T23:47:17.838Z,7.30
2019-05-23T23:50:10.584Z,4.63
2019-05-23T23:53:03.237Z,4.83
2019-05-23T23:55:57.107Z,4.60
2019-05-23T23:58:30.655Z,4.30
